Portada
METAR-TAF:

METAR-TAF

Aeroports :

Cusco, Perú

latitud: 13-33S, longitud: 071-59W, altitud: 3248 m

Observació

L'informe es va fer fa 49 minuts, a les 09:00 UTC
Vent 2 kt del Est/Nord-Est
Temperatura 2°C
Humitat 69%
Pressió 1031 hPa
Visibilitat 10 km o més

METAR: SPZO 260900Z 07002KT 9999 NSC 02/M03 Q1031 RMK BIRD HAZARD RWY 28 PP000

Hora: 04:49 (09:49 UTC)

Pronòstic

L'informe es va fer fa 4 hores i 49 minuts, a les 05:00 UTC
Pronòstic vàlid del 26 a les 06 UTC al 27 a les 06 UTC
Vent 3 kt del Nord-Oest
Visibilitat 10 km o més
Núvols disperses a una alçada de 5000 ft
Evolucionant progressivament
l' 26 a les 08 UTC al 26 a les 10 UTC
Núvols disperses a una alçada de 3700 ft
Evolucionant progressivament
l' 26 a les 14 UTC al 26 a les 16 UTC
Vent 10 kt del Nord-Oest
Visibilitat 10 km o més

TAF: SPZO 260500Z 2606/2706 31003KT 9999 SCT050 TX21/2619Z TNM01/2611Z BECMG 2608/2610 SCT037 BECMG 2614/2616 31010KT 9999 NSC

Observacions i pronòstics meteorològics de més de 4000 aeroports (METAR i TAF).

Les estacions disponibles són els punts grocs i vermells al mapa.

Posi el ratolí al punt desitjat per veure el nom de l'estació.

Feu clic per veure les observacions i els pronòstics meteorològics.

Per canviar el mapa: feu clic els botons verds amb una creu de color negre per apropar; al botó verd amb un guió per allunyar la imatge; o en les fletxes verdes per a mapes adjacents.


METAR-TAF: